CST,Max TemperatureF,Mean TemperatureF,Min TemperatureF,Max Dew PointF,MeanDew PointF,Min DewpointF,Max Humidity, Mean Humidity, Min Humidity, Max Sea Level PressureIn, Mean Sea Level PressureIn, Min Sea Level PressureIn, Max VisibilityMiles, Mean VisibilityMiles, Min VisibilityMiles, Max Wind SpeedMPH, Mean Wind SpeedMPH, Max Gust SpeedMPH,PrecipitationIn, CloudCover, Events, WindDirDegrees
2013-1-1,30,24,19,23,17,9,80,67,58,30.17,30.13,30.07,10,10,10,15,6,23,0.00,6,Snow,318
2013-1-2,28,20,12,14,10,7,79,66,51,30.22,30.16,30.13,10,10,10,12,7,17,0.00,2,,207
2013-1-3,32,24,17,25,19,9,86,74,64,30.24,30.17,30.10,10,10,5,14,8,24,0.00,7,,243
2013-1-4,33,24,15,23,18,9,86,73,56,30.24,30.21,30.13,10,10,10,16,9,25,0.00,0,,229
2013-1-5,33,27,21,32,25,18,100,85,64,30.26,30.14,29.98,10,9,2,17,7,24,0.00,4,Rain-Snow,203
2013-1-6,33,28,24,32,27,21,93,84,75,30.33,30.09,29.92,10,10,7,15,10,24,0.00,8,,267
2013-1-7,35,27,19,25,21,18,100,77,56,30.35,30.26,30.13,10,9,5,20,8,31,0.00,0,,197
2013-1-8,37,32,28,28,26,23,80,75,70,30.20,30.14,30.07,10,10,7,14,8,22,0.00,0,,185
2013-1-9,50,39,28,32,27,19,87,64,35,30.51,30.27,30.04,10,10,10,16,11,31,0.00,1,Rain,255
2013-1-10,42,32,23,39,28,21,100,79,53,30.52,30.30,29.96,10,9,3,15,4,22,0.00,3,Rain,124
2013-1-11,53,47,41,50,46,41,100,89,82,29.93,29.79,29.71,10,9,4,18,10,28,0.00,5,Rain,184
2013-1-12,55,45,35,46,40,32,93,78,61,29.97,29.88,29.78,10,10,7,16,10,24,0.00,2,Rain,254
2013-1-13,35,27,19,34,27,14,100,91,74,30.23,30.00,29.84,10,6,1,16,8,22,0.00,8,Rain-Snow,304
2013-1-14,24,19,14,19,15,12,93,83,74,30.45,30.39,30.23,10,10,7,10,6,17,0.00,6,Snow,276
2013-1-15,32,22,12,21,16,10,100,81,60,30.42,30.32,30.12,10,10,7,5,0,,0.00,1,,132
2013-1-16,35,24,14,27,20,14,100,75,48,30.10,29.98,29.85,10,10,7,22,6,30,0.00,4,Snow,233
2013-1-17,33,30,23,30,18,10,93,62,47,30.39,30.25,30.05,10,10,10,14,7,24,0.00,4,,310
2013-1-18,39,29,19,27,20,12,86,66,52,30.42,30.21,29.95,10,10,10,24,10,36,0.00,2,,199
2013-1-19,50,42,32,34,30,16,70,63,48,29.96,29.84,29.74,10,10,10,26,18,41,0.00,1,,227
2013-1-20,32,26,19,12,8,3,68,57,38,30.28,30.18,29.88,10,10,10,26,14,37,0.00,7,Snow,292
2013-1-21,19,14,8,7,0,-4,73,55,45,30.23,30.15,30.10,10,9,4,18,11,31,0.00,8,Snow,280
2013-1-22,14,10,6,3,0,-4,79,65,52,30.35,30.30,30.22,10,7,1,13,10,22,0.00,8,Snow,272
2013-1-23,21,16,10,16,6,0,80,62,53,30.31,30.20,30.09,10,9,2,23,9,31,0.00,8,Snow,246
2013-1-24,21,16,12,14,5,0,86,58,42,30.61,30.48,30.25,10,9,0,20,8,29,0.00,3,Snow,101
2013-1-25,28,22,17,21,15,7,86,74,58,30.38,30.12,29.99,10,8,1,14,6,21,0.00,8,Snow,194
2013-1-26,26,22,17,21,17,14,93,74,59,30.42,30.32,30.13,10,9,2,13,7,21,0.00,6,Snow,306
2013-1-27,33,28,23,34,23,16,100,77,64,30.40,30.23,29.96,10,9,2,16,6,29,0.00,6,Rain-Snow,150
2013-1-28,50,42,33,48,41,34,100,96,87,29.98,29.92,29.85,10,3,1,16,9,23,0.00,8,Rain,183
2013-1-29,59,50,42,55,53,43,100,95,82,29.87,29.64,29.40,10,5,0,20,10,31,0.00,8,Rain,193
2013-1-30,51,38,24,52,36,19,100,93,74,29.58,29.34,29.16,10,6,1,23,6,33,0.00,8,Rain-Snow,272
2013-1-31,24,18,12,19,10,3,86,73,62,30.09,29.84,29.59,10,7,0,18,14,36,0.00,8,Snow,272